sensor_id;sensor_type;location;lat;lon;timestamp;temperature;humidity
2002;DHT22;1003;48.002;7.788;2022-12-10T00:00:45;0.60;99.90
2002;DHT22;1003;48.002;7.788;2022-12-10T00:03:14;0.60;99.90
2002;DHT22;1003;48.002;7.788;2022-12-10T00:05:41;0.70;99.90
2002;DHT22;1003;48.002;7.788;2022-12-10T00:08:08;0.70;99.90
2002;DHT22;1003;48.002;7.788;2022-12-10T00:10:38;0.60;99.90
2002;DHT22;1003;48.002;7.788;2022-12-10T00:13:05;0.60;99.90
2002;DHT22;1003;48.002;7.788;2022-12-10T00:15:34;0.60;99.90
2002;DHT22;1003;48.002;7.788;2022-12-10T00:18:01;0.60;99.90
2002;DHT22;1003;48.002;7.788;2022-12-10T00:20:29;0.70;99.90
2002;DHT22;1003;48.002;7.788;2022-12-10T00:22:56;0.60;99.90
2002;DHT22;1003;48.002;7.788;2022-12-10T00:25:23;0.70;99.90
2002;DHT22;1003;48.002;7.788;2022-12-10T00:27:50;0.70;99.90
2002;DHT22;1003;48.002;7.788;2022-12-10T00:30:17;0.70;99.90
2002;DHT22;1003;48.002;7.788;2022-12-10T00:32:45;0.70;99.90
2002;DHT22;1003;48.002;7.788;2022-12-10T00:35:12;0.70;99.90
2002;DHT22;1003;48.002;7.788;2022-12-10T00:37:40;0.80;99.90
2002;DHT22;1003;48.002;7.788;2022-12-10T00:40:08;0.80;99.90
2002;DHT22;1003;48.002;7.788;2022-12-10T00:42:36;0.70;99.90
2002;DHT22;1003;48.002;7.788;2022-12-10T00:45:04;0.70;99.90
2002;DHT22;1003;48.002;7.788;2022-12-10T00:47:32;0.70;99.90
2002;DHT22;1003;48.002;7.788;2022-12-10T00:49:59;0.80;99.90
2002;DHT22;1003;48.002;7.788;2022-12-10T00:52:26;0.80;99.90
2002;DHT22;1003;48.002;7.788;2022-12-10T00:54:54;0.80;99.90
2002;DHT22;1003;48.002;7.788;2022-12-10T00:57:21;0.80;99.90
2002;DHT22;1003;48.002;7.788;2022-12-10T00:59:48;0.80;99.90
2002;DHT22;1003;48.002;7.788;2022-12-10T01:02:15;0.80;99.90
2002;DHT22;1003;48.002;7.788;2022-12-10T01:04:42;0.80;99.90
2002;DHT22;1003;48.002;7.788;2022-12-10T01:07:09;0.80;99.90
2002;DHT22;1003;48.002;7.788;2022-12-10T01:09:36;0.70;99.90
2002;DHT22;1003;48.002;7.788;2022-12-10T01:12:05;0.70;99.90
2002;DHT22;1003;48.002;7.788;2022-12-10T01:14:33;0.70;99.90
2002;DHT22;1003;48.002;7.788;2022-12-10T01:17:02;0.60;99.90
2002;DHT22;1003;48.002;7.788;2022-12-10T01:19:33;0.60;99.90
2002;DHT22;1003;48.002;7.788;2022-12-10T01:22:00;0.60;99.90
2002;DHT22;1003;48.002;7.788;2022-12-10T01:24:28;0.60;99.90
2002;DHT22;1003;48.002;7.788;2022-12-10T01:26:56;0.70;99.90
2002;DHT22;1003;48.002;7.788;2022-12-10T01:29:24;0.70;99.90
2002;DHT22;1003;48.002;7.788;2022-12-10T01:31:53;0.70;99.90
2002;DHT22;1003;48.002;7.788;2022-12-10T01:34:21;0.70;99.90
2002;DHT22;1003;48.002;7.788;2022-12-10T01:36:51;0.70;99.90
2002;DHT22;1003;48.002;7.788;2022-12-10T01:39:21;0.70;99.90
2002;DHT22;1003;48.002;7.788;2022-12-10T01:41:50;0.70;99.90
2002;DHT22;1003;48.002;7.788;2022-12-10T01:45:04;0.70;99.90
2002;DHT22;1003;48.002;7.788;2022-12-10T01:47:35;0.70;99.90
2002;DHT22;1003;48.002;7.788;2022-12-10T01:50:03;0.70;99.90
2002;DHT22;1003;48.002;7.788;2022-12-10T01:52:31;0.70;99.90
2002;DHT22;1003;48.002;7.788;2022-12-10T01:54:59;0.70;99.90
2002;DHT22;1003;48.002;7.788;2022-12-10T01:57:27;0.70;99.90
2002;DHT22;1003;48.002;7.788;2022-12-10T01:59:58;0.60;99.90
2002;DHT22;1003;48.002;7.788;2022-12-10T02:02:41;0.60;99.90
2002;DHT22;1003;48.002;7.788;2022-12-10T02:05:20;0.70;99.90
2002;DHT22;1003;48.002;7.788;2022-12-10T02:08:02;0.70;99.90
2002;DHT22;1003;48.002;7.788;2022-12-10T02:10:46;0.70;99.90
2002;DHT22;1003;48.002;7.788;2022-12-10T02:13:28;0.70;99.90
2002;DHT22;1003;48.002;7.788;2022-12-10T02:16:04;0.70;99.90
2002;DHT22;1003;48.002;7.788;2022-12-10T02:18:41;0.70;99.90
2002;DHT22;1003;48.002;7.788;2022-12-10T02:21:18;0.70;99.90
2002;DHT22;1003;48.002;7.788;2022-12-10T02:23:51;0.80;99.90
2002;DHT22;1003;48.002;7.788;2022-12-10T02:26:27;0.80;99.90
2002;DHT22;1003;48.002;7.788;2022-12-10T02:29:11;0.70;99.90
2002;DHT22;1003;48.002;7.788;2022-12-10T02:31:45;0.70;99.90
2002;DHT22;1003;48.002;7.788;2022-12-10T02:34:16;0.70;99.90
2002;DHT22;1003;48.002;7.788;2022-12-10T02:36:48;0.60;99.90
2002;DHT22;1003;48.002;7.788;2022-12-10T02:39:22;0.60;99.90
2002;DHT22;1003;48.002;7.788;2022-12-10T02:41:54;0.70;99.90
2002;DHT22;1003;48.002;7.788;2022-12-10T02:44:23;0.70;99.90
2002;DHT22;1003;48.002;7.788;2022-12-10T02:46:55;0.70;99.90
2002;DHT22;1003;48.002;7.788;2022-12-10T02:49:26;0.70;99.90
2002;DHT22;1003;48.002;7.788;2022-12-10T02:51:55;0.70;99.90
2002;DHT22;1003;48.002;7.788;2022-12-10T02:54:38;0.70;99.90
2002;DHT22;1003;48.002;7.788;2022-12-10T02:57:28;0.70;99.90
2002;DHT22;1003;48.002;7.788;2022-12-10T03:00:08;0.70;99.90
2002;DHT22;1003;48.002;7.788;2022-12-10T03:02:53;0.70;99.90
2002;DHT22;1003;48.002;7.788;2022-12-10T03:05:37;0.60;99.90
2002;DHT22;1003;48.002;7.788;2022-12-10T03:08:13;0.60;99.90
2002;DHT22;1003;48.002;7.788;2022-12-10T03:10:48;0.60;99.90
2002;DHT22;1003;48.002;7.788;2022-12-10T03:13:25;0.70;99.90
2002;DHT22;1003;48.002;7.788;2022-12-10T03:15:59;0.70;99.90
2002;DHT22;1003;48.002;7.788;2022-12-10T03:18:29;0.80;99.90
2002;DHT22;1003;48.002;7.788;2022-12-10T03:21:03;0.80;99.90
2002;DHT22;1003;48.002;7.788;2022-12-10T03:23:34;0.80;99.90
2002;DHT22;1003;48.002;7.788;2022-12-10T03:26:04;0.80;99.90
2002;DHT22;1003;48.002;7.788;2022-12-10T03:28:34;0.70;99.90
2002;DHT22;1003;48.002;7.788;2022-12-10T03:31:08;0.70;99.90
2002;DHT22;1003;48.002;7.788;2022-12-10T03:33:38;0.80;99.90
2002;DHT22;1003;48.002;7.788;2022-12-10T03:36:07;0.80;99.90
2002;DHT22;1003;48.002;7.788;2022-12-10T03:38:36;0.80;99.90
2002;DHT22;1003;48.002;7.788;2022-12-10T03:41:04;0.80;99.90
2002;DHT22;1003;48.002;7.788;2022-12-10T03:43:31;0.90;99.90
2002;DHT22;1003;48.002;7.788;2022-12-10T03:45:59;0.90;99.90
2002;DHT22;1003;48.002;7.788;2022-12-10T03:48:27;0.80;99.90
2002;DHT22;1003;48.002;7.788;2022-12-10T03:50:54;0.80;99.90
2002;DHT22;1003;48.002;7.788;2022-12-10T03:53:21;0.80;99.90
2002;DHT22;1003;48.002;7.788;2022-12-10T03:55:48;0.90;99.90
2002;DHT22;1003;48.002;7.788;2022-12-10T03:58:15;0.90;99.90
2002;DHT22;1003;48.002;7.788;2022-12-10T04:00:42;0.90;99.90
2002;DHT22;1003;48.002;7.788;2022-12-10T04:03:09;0.80;99.90
2002;DHT22;1003;48.002;7.788;2022-12-10T04:05:38;0.80;99.90
2002;DHT22;1003;48.002;7.788;2022-12-10T04:08:05;0.80;99.90
2002;DHT22;1003;48.002;7.788;2022-12-10T04:10:35;0.80;99.90
2002;DHT22;1003;48.002;7.788;2022-12-10T04:13:02;0.80;99.90
2002;DHT22;1003;48.002;7.788;2022-12-10T04:15:47;0.70;99.90
2002;DHT22;1003;48.002;7.788;2022-12-10T04:18:31;0.80;99.90
2002;DHT22;1003;48.002;7.788;2022-12-10T04:21:00;0.80;99.90
2002;DHT22;1003;48.002;7.788;2022-12-10T04:23:45;0.80;99.90
2002;DHT22;1003;48.002;7.788;2022-12-10T04:26:29;0.80;99.90
2002;DHT22;1003;48.002;7.788;2022-12-10T04:29:14;0.70;99.90
2002;DHT22;1003;48.002;7.788;2022-12-10T04:31:41;0.80;99.90
2002;DHT22;1003;48.002;7.788;2022-12-10T04:34:08;0.70;99.90
2002;DHT22;1003;48.002;7.788;2022-12-10T04:36:36;0.70;99.90
2002;DHT22;1003;48.002;7.788;2022-12-10T04:39:04;0.70;99.90
2002;DHT22;1003;48.002;7.788;2022-12-10T04:41:31;0.70;99.90
2002;DHT22;1003;48.002;7.788;2022-12-10T04:43:58;0.70;99.90
2002;DHT22;1003;48.002;7.788;2022-12-10T04:46:25;0.70;99.90
2002;DHT22;1003;48.002;7.788;2022-12-10T04:48:54;0.70;99.90
2002;DHT22;1003;48.002;7.788;2022-12-10T04:51:21;0.70;99.90
2002;DHT22;1003;48.002;7.788;2022-12-10T04:53:50;0.70;99.90
2002;DHT22;1003;48.002;7.788;2022-12-10T04:56:17;0.70;99.90
2002;DHT22;1003;48.002;7.788;2022-12-10T04:58:44;0.60;99.90
2002;DHT22;1003;48.002;7.788;2022-12-10T05:01:11;0.60;99.90
2002;DHT22;1003;48.002;7.788;2022-12-10T05:03:39;0.60;99.90
2002;DHT22;1003;48.002;7.788;2022-12-10T05:06:08;0.60;99.90
2002;DHT22;1003;48.002;7.788;2022-12-10T05:08:39;0.60;99.90
2002;DHT22;1003;48.002;7.788;2022-12-10T05:11:10;0.70;99.90
2002;DHT22;1003;48.002;7.788;2022-12-10T05:13:39;0.70;99.90
2002;DHT22;1003;48.002;7.788;2022-12-10T05:16:10;0.70;99.90
2002;DHT22;1003;48.002;7.788;2022-12-10T05:18:38;0.70;99.90
2002;DHT22;1003;48.002;7.788;2022-12-10T05:21:07;0.70;99.90
2002;DHT22;1003;48.002;7.788;2022-12-10T05:23:40;0.60;99.90
2002;DHT22;1003;48.002;7.788;2022-12-10T05:26:12;0.60;99.90
2002;DHT22;1003;48.002;7.788;2022-12-10T05:28:42;0.60;99.90
2002;DHT22;1003;48.002;7.788;2022-12-10T05:31:12;0.60;99.90
2002;DHT22;1003;48.002;7.788;2022-12-10T05:33:40;0.60;99.90
2002;DHT22;1003;48.002;7.788;2022-12-10T05:36:08;0.60;99.90
2002;DHT22;1003;48.002;7.788;2022-12-10T05:38:37;0.60;99.90
2002;DHT22;1003;48.002;7.788;2022-12-10T05:41:08;0.60;99.90
2002;DHT22;1003;48.002;7.788;2022-12-10T05:43:38;0.60;99.90
2002;DHT22;1003;48.002;7.788;2022-12-10T05:46:07;0.60;99.90
2002;DHT22;1003;48.002;7.788;2022-12-10T05:48:37;0.60;99.90
2002;DHT22;1003;48.002;7.788;2022-12-10T05:51:04;0.60;99.90
2002;DHT22;1003;48.002;7.788;2022-12-10T05:53:33;0.60;99.90
2002;DHT22;1003;48.002;7.788;2022-12-10T05:56:01;0.60;99.90
2002;DHT22;1003;48.002;7.788;2022-12-10T05:58:30;0.60;99.90
2002;DHT22;1003;48.002;7.788;2022-12-10T06:00:58;0.60;99.90
2002;DHT22;1003;48.002;7.788;2022-12-10T06:03:27;0.60;99.90
2002;DHT22;1003;48.002;7.788;2022-12-10T06:05:54;0.60;99.90
2002;DHT22;1003;48.002;7.788;2022-12-10T06:08:21;0.60;99.90
2002;DHT22;1003;48.002;7.788;2022-12-10T06:10:49;0.70;99.90
2002;DHT22;1003;48.002;7.788;2022-12-10T06:13:16;0.60;99.90
2002;DHT22;1003;48.002;7.788;2022-12-10T06:15:44;0.60;99.90
2002;DHT22;1003;48.002;7.788;2022-12-10T06:18:11;0.60;99.90
2002;DHT22;1003;48.002;7.788;2022-12-10T06:20:39;0.70;99.90
2002;DHT22;1003;48.002;7.788;2022-12-10T06:23:06;0.70;99.90
2002;DHT22;1003;48.002;7.788;2022-12-10T06:25:33;0.70;99.90
2002;DHT22;1003;48.002;7.788;2022-12-10T06:28:04;0.70;99.90
2002;DHT22;1003;48.002;7.788;2022-12-10T06:30:31;0.70;99.90
2002;DHT22;1003;48.002;7.788;2022-12-10T06:33:00;0.60;99.90
2002;DHT22;1003;48.002;7.788;2022-12-10T06:35:27;0.60;99.90
2002;DHT22;1003;48.002;7.788;2022-12-10T06:37:54;0.60;99.90
2002;DHT22;1003;48.002;7.788;2022-12-10T06:40:21;0.60;99.90
2002;DHT22;1003;48.002;7.788;2022-12-10T06:42:50;0.60;99.90
2002;DHT22;1003;48.002;7.788;2022-12-10T06:45:18;0.60;99.90
2002;DHT22;1003;48.002;7.788;2022-12-10T06:47:45;0.60;99.90
2002;DHT22;1003;48.002;7.788;2022-12-10T06:50:13;0.60;99.90
2002;DHT22;1003;48.002;7.788;2022-12-10T06:52:40;0.60;99.90
2002;DHT22;1003;48.002;7.788;2022-12-10T06:55:08;0.60;99.90
2002;DHT22;1003;48.002;7.788;2022-12-10T06:57:35;0.60;99.90
2002;DHT22;1003;48.002;7.788;2022-12-10T07:00:03;0.60;99.90
2002;DHT22;1003;48.002;7.788;2022-12-10T07:02:31;0.60;99.90
2002;DHT22;1003;48.002;7.788;2022-12-10T07:04:59;0.70;99.90
2002;DHT22;1003;48.002;7.788;2022-12-10T07:07:28;0.70;99.90
2002;DHT22;1003;48.002;7.788;2022-12-10T07:09:55;0.70;99.90
2002;DHT22;1003;48.002;7.788;2022-12-10T07:12:22;0.70;99.90
2002;DHT22;1003;48.002;7.788;2022-12-10T07:14:49;0.70;99.90
2002;DHT22;1003;48.002;7.788;2022-12-10T07:17:16;0.70;99.90
2002;DHT22;1003;48.002;7.788;2022-12-10T07:19:43;0.70;99.90
2002;DHT22;1003;48.002;7.788;2022-12-10T07:22:10;0.70;99.90
2002;DHT22;1003;48.002;7.788;2022-12-10T07:24:38;0.70;99.90
2002;DHT22;1003;48.002;7.788;2022-12-10T07:27:06;0.70;99.90
2002;DHT22;1003;48.002;7.788;2022-12-10T07:29:34;0.60;99.90
2002;DHT22;1003;48.002;7.788;2022-12-10T07:32:01;0.60;99.90
2002;DHT22;1003;48.002;7.788;2022-12-10T07:34:28;0.60;99.90
2002;DHT22;1003;48.002;7.788;2022-12-10T07:36:56;0.70;99.90
2002;DHT22;1003;48.002;7.788;2022-12-10T07:39:23;0.70;99.90
2002;DHT22;1003;48.002;7.788;2022-12-10T07:41:52;0.70;99.90
2002;DHT22;1003;48.002;7.788;2022-12-10T07:44:20;0.70;99.90
2002;DHT22;1003;48.002;7.788;2022-12-10T07:46:49;0.70;99.90
2002;DHT22;1003;48.002;7.788;2022-12-10T07:49:17;0.70;99.90
2002;DHT22;1003;48.002;7.788;2022-12-10T07:51:45;0.70;99.90
2002;DHT22;1003;48.002;7.788;2022-12-10T07:54:13;0.70;99.90
2002;DHT22;1003;48.002;7.788;2022-12-10T07:56:40;0.70;99.90
2002;DHT22;1003;48.002;7.788;2022-12-10T07:59:09;0.70;99.90
2002;DHT22;1003;48.002;7.788;2022-12-10T08:01:36;0.70;99.90
2002;DHT22;1003;48.002;7.788;2022-12-10T08:04:04;0.70;99.90
2002;DHT22;1003;48.002;7.788;2022-12-10T08:06:31;0.80;99.90
2002;DHT22;1003;48.002;7.788;2022-12-10T08:08:59;0.80;99.90
2002;DHT22;1003;48.002;7.788;2022-12-10T08:11:26;0.80;99.90
2002;DHT22;1003;48.002;7.788;2022-12-10T08:13:55;0.80;99.90
2002;DHT22;1003;48.002;7.788;2022-12-10T08:16:26;0.80;99.90
2002;DHT22;1003;48.002;7.788;2022-12-10T08:18:57;0.70;99.90
2002;DHT22;1003;48.002;7.788;2022-12-10T08:21:30;0.80;99.90
2002;DHT22;1003;48.002;7.788;2022-12-10T08:23:59;0.80;99.90
2002;DHT22;1003;48.002;7.788;2022-12-10T08:26:29;0.80;99.90
2002;DHT22;1003;48.002;7.788;2022-12-10T08:28:58;0.90;99.90
2002;DHT22;1003;48.002;7.788;2022-12-10T08:31:27;0.90;99.90
2002;DHT22;1003;48.002;7.788;2022-12-10T08:33:55;0.90;99.90
2002;DHT22;1003;48.002;7.788;2022-12-10T08:36:22;1.00;99.90
2002;DHT22;1003;48.002;7.788;2022-12-10T08:38:49;0.90;99.90
2002;DHT22;1003;48.002;7.788;2022-12-10T08:41:18;1.00;99.90
2002;DHT22;1003;48.002;7.788;2022-12-10T08:43:46;1.00;99.90
2002;DHT22;1003;48.002;7.788;2022-12-10T08:46:14;1.00;99.90
2002;DHT22;1003;48.002;7.788;2022-12-10T08:48:43;0.90;99.90
2002;DHT22;1003;48.002;7.788;2022-12-10T08:51:13;1.00;99.90
2002;DHT22;1003;48.002;7.788;2022-12-10T08:53:42;1.00;99.90
2002;DHT22;1003;48.002;7.788;2022-12-10T08:56:09;1.00;99.90
2002;DHT22;1003;48.002;7.788;2022-12-10T08:58:37;1.00;99.90
2002;DHT22;1003;48.002;7.788;2022-12-10T09:01:06;1.00;99.90
2002;DHT22;1003;48.002;7.788;2022-12-10T09:03:36;1.00;99.90
2002;DHT22;1003;48.002;7.788;2022-12-10T09:06:07;1.00;99.90
2002;DHT22;1003;48.002;7.788;2022-12-10T09:08:35;1.00;99.90
2002;DHT22;1003;48.002;7.788;2022-12-10T09:11:07;1.00;99.90
2002;DHT22;1003;48.002;7.788;2022-12-10T09:13:36;1.00;99.90
2002;DHT22;1003;48.002;7.788;2022-12-10T09:16:04;1.00;99.90
2002;DHT22;1003;48.002;7.788;2022-12-10T09:18:32;1.00;99.90
2002;DHT22;1003;48.002;7.788;2022-12-10T09:20:59;1.10;99.90
2002;DHT22;1003;48.002;7.788;2022-12-10T09:23:27;1.10;99.90
2002;DHT22;1003;48.002;7.788;2022-12-10T09:25:54;1.10;99.90
2002;DHT22;1003;48.002;7.788;2022-12-10T09:28:21;1.10;99.90
2002;DHT22;1003;48.002;7.788;2022-12-10T09:30:55;1.10;99.90
2002;DHT22;1003;48.002;7.788;2022-12-10T09:33:22;1.10;99.90
2002;DHT22;1003;48.002;7.788;2022-12-10T09:35:49;1.10;99.90
2002;DHT22;1003;48.002;7.788;2022-12-10T09:38:17;1.10;99.90
2002;DHT22;1003;48.002;7.788;2022-12-10T09:40:48;1.10;99.90
2002;DHT22;1003;48.002;7.788;2022-12-10T09:43:26;1.10;99.90
2002;DHT22;1003;48.002;7.788;2022-12-10T09:46:06;1.10;99.90
2002;DHT22;1003;48.002;7.788;2022-12-10T09:48:51;1.10;99.90
2002;DHT22;1003;48.002;7.788;2022-12-10T09:51:30;1.10;99.90
2002;DHT22;1003;48.002;7.788;2022-12-10T09:54:01;1.20;99.90
2002;DHT22;1003;48.002;7.788;2022-12-10T09:56:48;1.10;99.90
2002;DHT22;1003;48.002;7.788;2022-12-10T09:59:20;1.20;99.90
2002;DHT22;1003;48.002;7.788;2022-12-10T10:02:00;1.20;99.90
2002;DHT22;1003;48.002;7.788;2022-12-10T10:04:29;1.10;99.90
2002;DHT22;1003;48.002;7.788;2022-12-10T10:06:56;1.20;99.90
2002;DHT22;1003;48.002;7.788;2022-12-10T10:09:24;1.20;99.90
2002;DHT22;1003;48.002;7.788;2022-12-10T10:11:53;1.20;99.90
2002;DHT22;1003;48.002;7.788;2022-12-10T10:14:25;1.20;99.90
2002;DHT22;1003;48.002;7.788;2022-12-10T10:16:56;1.20;99.90
2002;DHT22;1003;48.002;7.788;2022-12-10T10:19:29;1.20;99.90
2002;DHT22;1003;48.002;7.788;2022-12-10T10:22:00;1.20;99.90
2002;DHT22;1003;48.002;7.788;2022-12-10T10:24:33;1.20;99.90
2002;DHT22;1003;48.002;7.788;2022-12-10T10:27:12;1.30;99.90
2002;DHT22;1003;48.002;7.788;2022-12-10T10:29:42;1.20;99.90
2002;DHT22;1003;48.002;7.788;2022-12-10T10:32:15;1.20;99.90
2002;DHT22;1003;48.002;7.788;2022-12-10T10:34:45;1.20;99.90
2002;DHT22;1003;48.002;7.788;2022-12-10T10:37:20;1.20;99.90
2002;DHT22;1003;48.002;7.788;2022-12-10T10:39:50;1.20;99.90
2002;DHT22;1003;48.002;7.788;2022-12-10T10:42:27;1.10;99.90
2002;DHT22;1003;48.002;7.788;2022-12-10T10:45:02;1.20;99.90
2002;DHT22;1003;48.002;7.788;2022-12-10T10:47:33;1.10;99.90
2002;DHT22;1003;48.002;7.788;2022-12-10T10:50:04;1.10;99.90
2002;DHT22;1003;48.002;7.788;2022-12-10T10:52:36;1.20;99.90
2002;DHT22;1003;48.002;7.788;2022-12-10T10:55:08;1.20;99.90
2002;DHT22;1003;48.002;7.788;2022-12-10T10:58:02;1.30;99.90
2002;DHT22;1003;48.002;7.788;2022-12-10T11:00:29;1.40;99.90
2002;DHT22;1003;48.002;7.788;2022-12-10T11:02:57;1.40;99.90
2002;DHT22;1003;48.002;7.788;2022-12-10T11:05:26;1.40;99.90
2002;DHT22;1003;48.002;7.788;2022-12-10T11:07:59;1.30;99.90
2002;DHT22;1003;48.002;7.788;2022-12-10T11:10:28;1.20;99.90
2002;DHT22;1003;48.002;7.788;2022-12-10T11:12:58;1.20;99.90
2002;DHT22;1003;48.002;7.788;2022-12-10T11:15:34;1.30;99.90
2002;DHT22;1003;48.002;7.788;2022-12-10T11:18:09;1.30;99.90
2002;DHT22;1003;48.002;7.788;2022-12-10T11:20:58;1.30;99.90
2002;DHT22;1003;48.002;7.788;2022-12-10T11:23:29;1.40;99.90
2002;DHT22;1003;48.002;7.788;2022-12-10T11:26:11;1.40;99.90
2002;DHT22;1003;48.002;7.788;2022-12-10T11:28:58;1.30;99.90
2002;DHT22;1003;48.002;7.788;2022-12-10T11:31:51;1.30;99.90
2002;DHT22;1003;48.002;7.788;2022-12-10T11:34:38;1.60;99.90
2002;DHT22;1003;48.002;7.788;2022-12-10T11:37:22;1.70;99.90
2002;DHT22;1003;48.002;7.788;2022-12-10T11:40:15;1.60;99.90
2002;DHT22;1003;48.002;7.788;2022-12-10T11:43:04;1.40;99.90
2002;DHT22;1003;48.002;7.788;2022-12-10T11:45:55;1.40;99.90
2002;DHT22;1003;48.002;7.788;2022-12-10T11:48:44;1.40;99.90
2002;DHT22;1003;48.002;7.788;2022-12-10T11:51:26;1.40;99.90
2002;DHT22;1003;48.002;7.788;2022-12-10T11:54:11;1.30;99.90
2002;DHT22;1003;48.002;7.788;2022-12-10T11:56:52;1.30;99.90
2002;DHT22;1003;48.002;7.788;2022-12-10T11:59:33;1.30;99.90
2002;DHT22;1003;48.002;7.788;2022-12-10T12:02:44;1.20;99.90
2002;DHT22;1003;48.002;7.788;2022-12-10T12:05:53;1.20;99.90
2002;DHT22;1003;48.002;7.788;2022-12-10T12:08:39;1.20;99.90
2002;DHT22;1003;48.002;7.788;2022-12-10T12:11:28;1.20;99.90
2002;DHT22;1003;48.002;7.788;2022-12-10T12:14:10;1.20;99.90
2002;DHT22;1003;48.002;7.788;2022-12-10T12:16:47;1.30;99.90
2002;DHT22;1003;48.002;7.788;2022-12-10T12:19:25;1.30;99.90
2002;DHT22;1003;48.002;7.788;2022-12-10T12:22:01;1.30;99.90
2002;DHT22;1003;48.002;7.788;2022-12-10T12:24:37;1.20;99.90
2002;DHT22;1003;48.002;7.788;2022-12-10T12:27:11;1.20;99.90
2002;DHT22;1003;48.002;7.788;2022-12-10T12:29:46;1.30;99.90
2002;DHT22;1003;48.002;7.788;2022-12-10T12:32:27;1.20;99.90
2002;DHT22;1003;48.002;7.788;2022-12-10T12:35:03;1.20;99.90
2002;DHT22;1003;48.002;7.788;2022-12-10T12:37:40;1.20;99.90
2002;DHT22;1003;48.002;7.788;2022-12-10T12:40:14;1.20;99.90
2002;DHT22;1003;48.002;7.788;2022-12-10T12:42:56;1.20;99.90
2002;DHT22;1003;48.002;7.788;2022-12-10T12:45:33;1.10;99.90
2002;DHT22;1003;48.002;7.788;2022-12-10T12:48:16;1.10;99.90
2002;DHT22;1003;48.002;7.788;2022-12-10T12:50:54;1.20;99.90
2002;DHT22;1003;48.002;7.788;2022-12-10T12:53:25;1.20;99.90
2002;DHT22;1003;48.002;7.788;2022-12-10T12:55:58;1.10;99.90
2002;DHT22;1003;48.002;7.788;2022-12-10T12:58:37;1.20;99.90
2002;DHT22;1003;48.002;7.788;2022-12-10T13:01:19;1.10;99.90
2002;DHT22;1003;48.002;7.788;2022-12-10T13:03:51;1.10;99.90
2002;DHT22;1003;48.002;7.788;2022-12-10T13:06:22;1.10;99.90
2002;DHT22;1003;48.002;7.788;2022-12-10T13:08:58;1.10;99.90
2002;DHT22;1003;48.002;7.788;2022-12-10T13:11:45;1.10;99.90
2002;DHT22;1003;48.002;7.788;2022-12-10T13:14:34;1.10;99.90
2002;DHT22;1003;48.002;7.788;2022-12-10T13:17:09;1.20;99.90
2002;DHT22;1003;48.002;7.788;2022-12-10T13:20:28;1.30;99.90
2002;DHT22;1003;48.002;7.788;2022-12-10T13:22:59;1.30;99.90
2002;DHT22;1003;48.002;7.788;2022-12-10T13:25:40;1.30;99.90
2002;DHT22;1003;48.002;7.788;2022-12-10T13:28:27;1.30;99.90
2002;DHT22;1003;48.002;7.788;2022-12-10T13:31:16;1.30;99.90
2002;DHT22;1003;48.002;7.788;2022-12-10T13:34:06;1.30;99.90
2002;DHT22;1003;48.002;7.788;2022-12-10T13:40:14;1.30;99.90
2002;DHT22;1003;48.002;7.788;2022-12-10T13:42:56;1.40;99.90
2002;DHT22;1003;48.002;7.788;2022-12-10T13:45:42;1.30;99.90
2002;DHT22;1003;48.002;7.788;2022-12-10T13:51:14;1.40;99.90
2002;DHT22;1003;48.002;7.788;2022-12-10T13:54:03;1.30;99.90
2002;DHT22;1003;48.002;7.788;2022-12-10T13:56:44;1.30;99.90
2002;DHT22;1003;48.002;7.788;2022-12-10T13:59:28;1.50;99.90
2002;DHT22;1003;48.002;7.788;2022-12-10T14:02:22;1.50;99.90
2002;DHT22;1003;48.002;7.788;2022-12-10T14:05:23;1.50;99.90
2002;DHT22;1003;48.002;7.788;2022-12-10T14:08:01;1.40;99.90
2002;DHT22;1003;48.002;7.788;2022-12-10T14:10:32;1.40;99.90
2002;DHT22;1003;48.002;7.788;2022-12-10T14:13:04;1.40;99.90
2002;DHT22;1003;48.002;7.788;2022-12-10T14:15:34;1.30;99.90
2002;DHT22;1003;48.002;7.788;2022-12-10T14:18:09;1.30;99.90
2002;DHT22;1003;48.002;7.788;2022-12-10T14:20:40;1.20;99.90
2002;DHT22;1003;48.002;7.788;2022-12-10T14:23:23;1.10;99.90
2002;DHT22;1003;48.002;7.788;2022-12-10T14:26:07;1.00;99.90
2002;DHT22;1003;48.002;7.788;2022-12-10T14:28:44;1.00;99.90
2002;DHT22;1003;48.002;7.788;2022-12-10T14:31:16;0.90;99.90
2002;DHT22;1003;48.002;7.788;2022-12-10T14:33:46;0.90;99.90
2002;DHT22;1003;48.002;7.788;2022-12-10T14:36:20;0.90;99.90
2002;DHT22;1003;48.002;7.788;2022-12-10T14:38:52;1.00;99.90
2002;DHT22;1003;48.002;7.788;2022-12-10T14:41:22;1.00;99.90
2002;DHT22;1003;48.002;7.788;2022-12-10T14:43:52;1.00;99.90
2002;DHT22;1003;48.002;7.788;2022-12-10T14:46:24;0.90;99.90
2002;DHT22;1003;48.002;7.788;2022-12-10T14:48:54;0.90;99.90
2002;DHT22;1003;48.002;7.788;2022-12-10T14:51:24;0.90;99.90
2002;DHT22;1003;48.002;7.788;2022-12-10T14:53:53;0.90;99.90
2002;DHT22;1003;48.002;7.788;2022-12-10T14:56:25;0.90;99.90
2002;DHT22;1003;48.002;7.788;2022-12-10T14:59:02;0.90;99.90
2002;DHT22;1003;48.002;7.788;2022-12-10T15:01:34;0.80;99.90
2002;DHT22;1003;48.002;7.788;2022-12-10T15:04:05;0.70;99.90
2002;DHT22;1003;48.002;7.788;2022-12-10T15:06:38;0.90;99.90
2002;DHT22;1003;48.002;7.788;2022-12-10T15:09:13;0.70;99.90
2002;DHT22;1003;48.002;7.788;2022-12-10T15:11:42;0.80;99.90
2002;DHT22;1003;48.002;7.788;2022-12-10T15:14:17;0.90;99.90
2002;DHT22;1003;48.002;7.788;2022-12-10T15:16:46;0.80;99.90
2002;DHT22;1003;48.002;7.788;2022-12-10T15:19:19;0.80;99.90
2002;DHT22;1003;48.002;7.788;2022-12-10T15:21:50;0.80;99.90
2002;DHT22;1003;48.002;7.788;2022-12-10T15:24:21;0.90;99.90
2002;DHT22;1003;48.002;7.788;2022-12-10T15:26:52;0.80;99.90
2002;DHT22;1003;48.002;7.788;2022-12-10T15:29:34;0.80;99.90
2002;DHT22;1003;48.002;7.788;2022-12-10T15:32:08;0.70;99.90
2002;DHT22;1003;48.002;7.788;2022-12-10T15:34:42;0.70;99.90
2002;DHT22;1003;48.002;7.788;2022-12-10T15:37:18;0.60;99.90
2002;DHT22;1003;48.002;7.788;2022-12-10T15:39:51;0.60;99.90
2002;DHT22;1003;48.002;7.788;2022-12-10T15:42:38;0.60;99.90
2002;DHT22;1003;48.002;7.788;2022-12-10T15:45:20;0.70;99.90
2002;DHT22;1003;48.002;7.788;2022-12-10T15:47:51;0.70;99.90
2002;DHT22;1003;48.002;7.788;2022-12-10T15:50:20;0.60;99.90
2002;DHT22;1003;48.002;7.788;2022-12-10T15:52:47;0.60;99.90
2002;DHT22;1003;48.002;7.788;2022-12-10T15:55:15;0.70;99.90
2002;DHT22;1003;48.002;7.788;2022-12-10T15:57:42;0.60;99.90
2002;DHT22;1003;48.002;7.788;2022-12-10T16:00:19;0.60;99.90
2002;DHT22;1003;48.002;7.788;2022-12-10T16:02:50;0.60;99.90
2002;DHT22;1003;48.002;7.788;2022-12-10T16:05:22;0.60;99.90
2002;DHT22;1003;48.002;7.788;2022-12-10T16:07:51;0.50;99.90
2002;DHT22;1003;48.002;7.788;2022-12-10T16:10:21;0.50;99.90
2002;DHT22;1003;48.002;7.788;2022-12-10T16:12:57;0.50;99.90
2002;DHT22;1003;48.002;7.788;2022-12-10T16:15:30;0.40;99.90
2002;DHT22;1003;48.002;7.788;2022-12-10T16:18:01;0.40;99.90
2002;DHT22;1003;48.002;7.788;2022-12-10T16:20:29;0.40;99.90
2002;DHT22;1003;48.002;7.788;2022-12-10T16:22:58;0.40;99.90
2002;DHT22;1003;48.002;7.788;2022-12-10T16:25:28;0.40;99.90
2002;DHT22;1003;48.002;7.788;2022-12-10T16:27:58;0.40;99.90
2002;DHT22;1003;48.002;7.788;2022-12-10T16:30:31;0.40;99.90
2002;DHT22;1003;48.002;7.788;2022-12-10T16:33:01;0.40;99.90
2002;DHT22;1003;48.002;7.788;2022-12-10T16:35:30;0.40;99.90
2002;DHT22;1003;48.002;7.788;2022-12-10T16:37:58;0.40;99.90
2002;DHT22;1003;48.002;7.788;2022-12-10T16:40:26;0.40;99.90
2002;DHT22;1003;48.002;7.788;2022-12-10T16:42:54;0.40;99.90
2002;DHT22;1003;48.002;7.788;2022-12-10T16:45:25;0.40;99.90
2002;DHT22;1003;48.002;7.788;2022-12-10T16:47:55;0.40;99.90
2002;DHT22;1003;48.002;7.788;2022-12-10T16:50:22;0.40;99.90
2002;DHT22;1003;48.002;7.788;2022-12-10T16:52:50;0.40;99.90
2002;DHT22;1003;48.002;7.788;2022-12-10T16:55:21;0.40;99.90
2002;DHT22;1003;48.002;7.788;2022-12-10T16:57:50;0.40;99.90